createdAt,value
2017-10-23T00:00:03.548Z,-61
2017-10-23T00:02:31.686Z,-61
2017-10-23T00:04:59.776Z,-61
2017-10-23T00:07:28.614Z,-60
2017-10-23T00:09:56.718Z,-62
2017-10-23T00:12:25.645Z,-62
2017-10-23T00:14:54.532Z,-61
2017-10-23T00:17:23.367Z,-61
2017-10-23T00:19:51.456Z,-61
2017-10-23T00:22:19.562Z,-60
2017-10-23T00:24:48.399Z,-60
2017-10-23T00:27:16.496Z,-61
2017-10-23T00:29:44.611Z,-61
2017-10-23T00:32:12.766Z,-61
2017-10-23T00:34:40.875Z,-61
2017-10-23T00:37:08.995Z,-61
2017-10-23T00:39:37.467Z,-61
2017-10-23T00:42:05.575Z,-61
2017-10-23T00:44:34.839Z,-61
2017-10-23T00:47:02.963Z,-61
2017-10-23T00:49:31.087Z,-61
2017-10-23T00:51:59.191Z,-61
2017-10-23T00:54:27.672Z,-61
2017-10-23T00:56:55.893Z,-61
2017-10-23T00:59:24.143Z,-61
2017-10-23T01:01:52.266Z,-61
2017-10-23T01:04:20.407Z,-61
2017-10-23T01:06:48.787Z,-61
2017-10-23T01:09:16.934Z,-62
2017-10-23T01:11:45.198Z,-62
2017-10-23T01:14:13.327Z,-61
2017-10-23T01:16:41.439Z,-62
2017-10-23T01:19:10.331Z,-61
2017-10-23T01:21:39.669Z,-61
2017-10-23T01:24:07.868Z,-61
2017-10-23T01:26:36.023Z,-61
2017-10-23T01:29:04.226Z,-62
2017-10-23T01:31:32.390Z,-61
2017-10-23T01:34:00.538Z,-61
2017-10-23T01:36:28.655Z,-61
2017-10-23T01:38:57.236Z,-61
2017-10-23T01:41:25.395Z,-61
2017-10-23T01:43:53.568Z,-61
2017-10-23T01:46:21.711Z,-61
2017-10-23T01:48:49.851Z,-61
2017-10-23T01:51:18.719Z,-61
2017-10-23T01:53:46.899Z,-62
2017-10-23T01:56:16.923Z,-61
2017-10-23T01:58:46.266Z,-61
2017-10-23T02:01:14.394Z,-61
2017-10-23T02:03:42.583Z,-62
2017-10-23T02:06:11.426Z,-61
2017-10-23T02:08:39.550Z,-61
2017-10-23T02:11:08.378Z,-61
2017-10-23T02:13:36.479Z,-61
2017-10-23T02:16:04.604Z,-61
2017-10-23T02:18:32.683Z,-61
2017-10-23T02:21:00.776Z,-61
2017-10-23T02:23:28.864Z,-61
2017-10-23T02:25:56.960Z,-61
2017-10-23T02:28:25.074Z,-61
2017-10-23T02:30:53.201Z,-61
2017-10-23T02:33:22.026Z,-61
2017-10-23T02:35:50.111Z,-62
2017-10-23T02:38:18.218Z,-61
2017-10-23T02:40:46.308Z,-61
2017-10-23T02:43:14.772Z,-61
2017-10-23T02:45:42.877Z,-61
2017-10-23T02:48:11.714Z,-61
2017-10-23T02:50:39.805Z,-61
2017-10-23T02:53:07.910Z,-61
2017-10-23T02:55:35.999Z,-61
2017-10-23T02:58:05.044Z,-61
2017-10-23T03:00:33.134Z,-61
2017-10-23T03:03:01.241Z,-61
2017-10-23T03:05:30.079Z,-61
2017-10-23T03:07:58.174Z,-61
2017-10-23T03:10:28.753Z,-61
2017-10-23T03:12:56.963Z,-61
2017-10-23T03:15:25.106Z,-61
2017-10-23T03:17:53.279Z,-61
2017-10-23T03:20:21.450Z,-61
2017-10-23T03:22:49.623Z,-61
2017-10-23T03:25:18.051Z,-61
2017-10-23T03:27:46.262Z,-61
2017-10-23T03:30:15.192Z,-61
2017-10-23T03:32:43.335Z,-61
2017-10-23T03:35:11.542Z,-61
2017-10-23T03:37:39.789Z,-61
2017-10-23T03:40:07.942Z,-61
2017-10-23T03:42:36.174Z,-61
2017-10-23T03:45:04.577Z,-61
2017-10-23T03:47:32.711Z,-61
2017-10-23T03:50:01.195Z,-60
2017-10-23T03:52:29.374Z,-61
2017-10-23T03:54:57.512Z,-61
2017-10-23T03:57:26.422Z,-61
2017-10-23T03:59:54.895Z,-61
2017-10-23T04:02:23.134Z,-61
2017-10-23T04:04:51.393Z,-61
2017-10-23T04:07:19.979Z,-61
2017-10-23T04:09:48.255Z,-62
2017-10-23T04:12:16.500Z,-61
2017-10-23T04:14:44.694Z,-60
2017-10-23T04:17:12.888Z,-60
2017-10-23T04:19:42.603Z,-60
2017-10-23T04:22:12.663Z,-60
2017-10-23T04:24:40.860Z,-60
2017-10-23T04:27:09.019Z,-61
2017-10-23T04:29:37.187Z,-61
2017-10-23T04:32:05.351Z,-60
2017-10-23T04:34:33.546Z,-60
2017-10-23T04:37:01.741Z,-61
2017-10-23T04:39:29.922Z,-60
2017-10-23T04:41:58.115Z,-60
2017-10-23T04:44:26.274Z,-61
2017-10-23T04:46:54.435Z,-61
2017-10-23T04:49:22.631Z,-60
2017-10-23T04:51:50.797Z,-60
2017-10-23T04:54:18.983Z,-60
2017-10-23T04:56:47.160Z,-61
2017-10-23T04:59:15.326Z,-60
2017-10-23T05:01:43.852Z,-61
2017-10-23T05:04:12.079Z,-61
2017-10-23T05:06:40.267Z,-60
2017-10-23T05:09:08.919Z,-61
2017-10-23T05:11:37.083Z,-61
2017-10-23T05:14:05.243Z,-61
2017-10-23T05:16:33.418Z,-61
2017-10-23T05:19:01.557Z,-61
2017-10-23T05:21:30.482Z,-61
2017-10-23T05:23:58.674Z,-61
2017-10-23T05:26:26.875Z,-61
2017-10-23T05:28:55.327Z,-62
2017-10-23T05:31:23.494Z,-61
2017-10-23T05:33:51.738Z,-61
2017-10-23T05:36:19.979Z,-61
2017-10-23T05:38:48.150Z,-60
2017-10-23T05:41:16.533Z,-61
2017-10-23T05:43:44.752Z,-60
2017-10-23T05:46:14.108Z,-60
2017-10-23T05:48:42.264Z,-61
2017-10-23T05:51:10.471Z,-60
2017-10-23T05:53:38.603Z,-60
2017-10-23T05:56:07.827Z,-61
2017-10-23T05:58:35.998Z,-60
2017-10-23T06:01:04.183Z,-61
2017-10-23T06:03:32.618Z,-61
2017-10-23T06:06:01.180Z,-61
2017-10-23T06:08:29.318Z,-61
2017-10-23T06:10:57.468Z,-61
2017-10-23T06:13:25.706Z,-61
2017-10-23T06:15:54.915Z,-62
2017-10-23T06:18:23.091Z,-61
2017-10-23T06:20:51.314Z,-61
2017-10-23T06:23:19.583Z,-61
2017-10-23T06:25:47.733Z,-62
2017-10-23T06:28:15.919Z,-57
2017-10-23T06:30:44.080Z,-58
2017-10-23T06:33:12.339Z,-56
2017-10-23T06:35:41.242Z,-56
2017-10-23T06:38:09.394Z,-56
2017-10-23T06:40:37.518Z,-56
2017-10-23T06:43:05.691Z,-57
2017-10-23T06:45:33.874Z,-57
2017-10-23T06:48:02.079Z,-56
2017-10-23T06:50:30.292Z,-56
2017-10-23T06:52:58.443Z,-56
2017-10-23T06:55:26.616Z,-56
2017-10-23T06:57:55.878Z,-56
2017-10-23T07:00:24.075Z,-56
2017-10-23T07:02:52.983Z,-58
2017-10-23T07:05:21.795Z,-56
2017-10-23T07:07:49.975Z,-56
2017-10-23T07:10:18.578Z,-56
2017-10-23T07:12:46.791Z,-57
2017-10-23T07:15:14.931Z,-57
2017-10-23T07:17:43.106Z,-57
2017-10-23T07:20:11.292Z,-57
2017-10-23T07:22:40.228Z,-57
2017-10-23T07:25:09.603Z,-57
2017-10-23T07:27:37.723Z,-57
2017-10-23T07:30:05.859Z,-57
2017-10-23T07:32:34.456Z,-57
2017-10-23T07:35:03.337Z,-56
2017-10-23T07:37:32.166Z,-57
2017-10-23T07:40:00.275Z,-57
2017-10-23T07:42:28.395Z,-57
2017-10-23T07:44:56.598Z,-57
2017-10-23T07:47:24.716Z,-57
2017-10-23T07:49:53.582Z,-57
2017-10-23T07:52:21.710Z,-57
2017-10-23T07:54:49.833Z,-57
2017-10-23T07:57:19.418Z,-57
2017-10-23T07:59:47.562Z,-57
2017-10-23T08:02:16.151Z,-57
2017-10-23T08:04:44.268Z,-57
2017-10-23T08:07:12.558Z,-57
2017-10-23T08:09:40.662Z,-57
2017-10-23T08:12:09.096Z,-57
2017-10-23T08:14:37.190Z,-58
2017-10-23T08:17:06.044Z,-58
2017-10-23T08:19:34.149Z,-54
2017-10-23T08:22:02.267Z,-54
2017-10-23T08:24:30.656Z,-55
2017-10-23T08:26:58.747Z,-55
2017-10-23T08:29:28.227Z,-55
2017-10-23T08:31:56.344Z,-54
2017-10-23T08:34:25.918Z,-54
2017-10-23T08:36:54.003Z,-58
2017-10-23T08:39:22.108Z,-57
2017-10-23T08:41:50.204Z,-58
2017-10-23T08:44:18.306Z,-58
2017-10-23T08:46:46.710Z,-58
2017-10-23T08:49:14.844Z,-58
2017-10-23T08:51:43.036Z,-58
2017-10-23T08:54:11.246Z,-58
2017-10-23T08:56:40.131Z,-58
2017-10-23T08:59:09.795Z,-58
2017-10-23T09:01:37.960Z,-58
2017-10-23T09:04:06.142Z,-58
2017-10-23T09:06:34.335Z,-58
2017-10-23T09:09:03.230Z,-58
2017-10-23T09:11:31.379Z,-58
2017-10-23T09:13:59.527Z,-58
2017-10-23T09:16:27.666Z,-58
2017-10-23T09:18:55.848Z,-58
2017-10-23T09:21:23.943Z,-58
2017-10-23T09:23:52.087Z,-58
2017-10-23T09:26:20.218Z,-59
2017-10-23T09:28:48.334Z,-65
2017-10-23T09:31:16.439Z,-58
2017-10-23T09:33:45.021Z,-58
2017-10-23T09:36:13.932Z,-58
2017-10-23T09:38:42.047Z,-58
2017-10-23T09:41:10.183Z,-58
2017-10-23T09:43:38.279Z,-58
2017-10-23T09:46:06.383Z,-58
2017-10-23T09:48:34.500Z,-58
2017-10-23T09:51:02.604Z,-58
2017-10-23T09:53:30.675Z,-58
2017-10-23T09:55:58.766Z,-57
2017-10-23T09:58:26.876Z,-58
2017-10-23T10:00:55.863Z,-57
2017-10-23T10:03:24.410Z,-58
2017-10-23T10:05:52.507Z,-58
2017-10-23T10:08:20.731Z,-58
2017-10-23T10:10:48.875Z,-58
2017-10-23T10:13:17.731Z,-57
2017-10-23T10:15:45.878Z,-57
2017-10-23T10:18:14.015Z,-58
2017-10-23T10:20:42.123Z,-58
2017-10-23T10:23:10.238Z,-58
2017-10-23T10:25:38.333Z,-58
2017-10-23T10:28:07.661Z,-58
2017-10-23T10:30:35.773Z,-58
2017-10-23T10:33:03.923Z,-58
2017-10-23T10:35:32.042Z,-58
2017-10-23T10:38:00.888Z,-57
2017-10-23T10:40:29.003Z,-57
2017-10-23T10:42:58.315Z,-58
2017-10-23T10:45:27.171Z,-57
2017-10-23T10:47:55.299Z,-58
2017-10-23T10:50:23.391Z,-57
2017-10-23T10:52:51.518Z,-58
2017-10-23T10:55:19.635Z,-58
2017-10-23T10:57:47.736Z,-58
2017-10-23T11:00:16.052Z,-58
2017-10-23T11:02:44.552Z,-58
2017-10-23T11:05:12.687Z,-58
2017-10-23T11:07:40.812Z,-58
2017-10-23T11:10:09.001Z,-58
2017-10-23T11:12:37.160Z,-58
2017-10-23T11:15:05.316Z,-58
2017-10-23T11:17:33.444Z,-58
2017-10-23T11:20:01.600Z,-58
2017-10-23T11:22:30.135Z,-58
2017-10-23T11:24:58.283Z,-58
2017-10-23T11:27:26.430Z,-59
2017-10-23T11:29:54.583Z,-58
2017-10-23T11:32:22.703Z,-58
2017-10-23T11:34:50.827Z,-58
2017-10-23T11:37:18.920Z,-58
2017-10-23T11:39:47.019Z,-59
2017-10-23T11:42:15.675Z,-58
2017-10-23T11:44:44.079Z,-58
2017-10-23T11:47:12.179Z,-58
2017-10-23T11:49:40.321Z,-58
2017-10-23T11:52:08.414Z,-58
2017-10-23T11:54:37.234Z,-58
2017-10-23T11:57:05.339Z,-58
2017-10-23T11:59:33.444Z,-58
2017-10-23T12:02:02.300Z,-58
2017-10-23T12:04:30.399Z,-58
2017-10-23T12:06:58.483Z,-59
2017-10-23T12:09:27.323Z,-58
2017-10-23T12:11:55.440Z,-58
2017-10-23T12:14:24.543Z,-58
2017-10-23T12:16:53.489Z,-58
2017-10-23T12:19:22.019Z,-58
2017-10-23T12:21:50.886Z,-58
2017-10-23T12:24:19.071Z,-58
2017-10-23T12:26:47.209Z,-58
2017-10-23T12:29:15.339Z,-58
2017-10-23T12:31:43.483Z,-58
2017-10-23T12:34:11.992Z,-58
2017-10-23T12:36:40.119Z,-58
2017-10-23T12:39:08.267Z,-59
2017-10-23T12:41:36.475Z,-58
2017-10-23T12:44:04.607Z,-58
2017-10-23T12:46:32.742Z,-58
2017-10-23T12:49:00.868Z,-59
2017-10-23T12:51:28.955Z,-59
2017-10-23T12:53:57.075Z,-59
2017-10-23T12:56:25.165Z,-58
2017-10-23T12:58:53.690Z,-58
2017-10-23T13:01:21.783Z,-58
2017-10-23T13:03:49.931Z,-58
2017-10-23T13:06:18.047Z,-58
2017-10-23T13:08:46.178Z,-58
2017-10-23T13:11:14.267Z,-59
2017-10-23T13:13:42.373Z,-59
2017-10-23T13:16:11.279Z,-59
2017-10-23T13:18:39.423Z,-59
2017-10-23T13:21:07.549Z,-59
2017-10-23T13:23:35.683Z,-59
2017-10-23T13:26:04.624Z,-59
2017-10-23T13:28:32.779Z,-59
2017-10-23T13:31:00.907Z,-59
2017-10-23T13:33:29.767Z,-59
2017-10-23T13:35:57.863Z,-57
2017-10-23T13:38:25.935Z,-60
2017-10-23T13:40:54.047Z,-60
2017-10-23T13:43:22.155Z,-58
2017-10-23T13:45:50.551Z,-60
2017-10-23T13:48:18.635Z,-59
2017-10-23T13:50:47.476Z,-58
2017-10-23T13:53:15.587Z,-58
2017-10-23T13:55:43.713Z,-58
2017-10-23T13:58:11.822Z,-58
2017-10-23T14:00:40.707Z,-58
2017-10-23T14:03:08.840Z,-57
2017-10-23T14:05:36.936Z,-58
2017-10-23T14:08:05.044Z,-57
2017-10-23T14:10:33.158Z,-59
2017-10-23T14:13:01.244Z,-57
2017-10-23T14:15:29.355Z,-57
2017-10-23T14:17:59.217Z,-57
2017-10-23T14:20:27.434Z,-57
2017-10-23T14:22:55.623Z,-57
2017-10-23T14:25:24.279Z,-57
2017-10-23T14:27:52.482Z,-58
2017-10-23T14:30:20.692Z,-58
2017-10-23T14:35:17.019Z,-57
2017-10-23T14:37:45.274Z,-58
2017-10-23T14:40:13.499Z,-58
2017-10-23T14:42:41.790Z,-58
2017-10-23T14:45:09.969Z,-58
2017-10-23T14:47:38.499Z,-58
2017-10-23T14:50:06.754Z,-58
2017-10-23T14:52:34.950Z,-57
2017-10-23T14:55:03.174Z,-58
2017-10-23T14:57:31.425Z,-57
2017-10-23T15:00:00.359Z,-58
2017-10-23T15:02:28.591Z,-57
2017-10-23T15:04:57.483Z,-58
2017-10-23T15:07:26.371Z,-58
2017-10-23T15:09:55.290Z,-58
2017-10-23T15:12:23.842Z,-58
2017-10-23T15:14:51.962Z,-58
2017-10-23T15:17:20.113Z,-58
2017-10-23T15:19:48.602Z,-58
2017-10-23T15:22:16.768Z,-58
2017-10-23T15:24:44.915Z,-58
2017-10-23T15:27:13.878Z,-58
2017-10-23T15:29:42.011Z,-58
2017-10-23T15:32:10.100Z,-58
2017-10-23T15:34:38.198Z,-58
2017-10-23T15:37:06.327Z,-58
2017-10-23T15:39:34.429Z,-58
2017-10-23T15:42:02.800Z,-58
2017-10-23T15:44:30.896Z,-58
2017-10-23T15:46:58.991Z,-58
2017-10-23T15:49:27.911Z,-58
2017-10-23T15:51:56.039Z,-58
2017-10-23T15:54:25.625Z,-58
2017-10-23T15:56:53.778Z,-58
2017-10-23T15:59:21.878Z,-58
2017-10-23T16:01:49.975Z,-58
2017-10-23T16:04:18.152Z,-58
2017-10-23T16:06:46.299Z,-58
2017-10-23T16:09:14.395Z,-58
2017-10-23T16:11:42.808Z,-57
2017-10-23T16:14:10.900Z,-56
2017-10-23T16:16:39.027Z,-56
2017-10-23T16:19:07.134Z,-58
2017-10-23T16:21:35.471Z,-56
2017-10-23T16:24:03.643Z,-57
2017-10-23T16:26:31.759Z,-57
2017-10-23T16:29:00.291Z,-55
2017-10-23T16:31:28.462Z,-55
2017-10-23T16:33:56.594Z,-55
2017-10-23T16:36:24.771Z,-54
2017-10-23T16:38:52.864Z,-54
2017-10-23T16:41:21.012Z,-55
2017-10-23T16:43:49.123Z,-55
2017-10-23T16:46:17.407Z,-54
2017-10-23T16:48:45.530Z,-55
2017-10-23T16:51:13.981Z,-55
2017-10-23T16:53:42.842Z,-55
2017-10-23T16:56:10.932Z,-54
2017-10-23T16:58:39.043Z,-55
2017-10-23T17:01:07.137Z,-55
2017-10-23T17:03:35.254Z,-54
2017-10-23T17:06:03.411Z,-55
2017-10-23T17:08:32.061Z,-55
2017-10-23T17:11:00.147Z,-55
2017-10-23T17:13:28.261Z,-55
2017-10-23T17:15:57.114Z,-54
2017-10-23T17:18:25.230Z,-57
2017-10-23T17:20:54.127Z,-54
2017-10-23T17:23:23.335Z,-54
2017-10-23T17:25:51.604Z,-57
2017-10-23T17:28:19.716Z,-55
2017-10-23T17:30:48.115Z,-57
2017-10-23T17:33:16.201Z,-57
2017-10-23T17:35:44.323Z,-55
2017-10-23T17:38:12.398Z,-55
2017-10-23T17:40:40.516Z,-55
2017-10-23T17:43:09.960Z,-55
2017-10-23T17:45:38.523Z,-55
2017-10-23T17:48:07.395Z,-55
2017-10-23T17:50:35.516Z,-56
2017-10-23T17:53:03.636Z,-55
2017-10-23T17:55:31.746Z,-55
2017-10-23T17:58:00.287Z,-55
2017-10-23T18:00:28.472Z,-55
2017-10-23T18:02:56.822Z,-55
2017-10-23T18:05:24.921Z,-55
2017-10-23T18:07:53.031Z,-55
2017-10-23T18:10:21.874Z,-55
2017-10-23T18:12:49.983Z,-55
2017-10-23T18:15:18.850Z,-55
2017-10-23T18:17:46.968Z,-55
2017-10-23T18:20:15.099Z,-55
2017-10-23T18:22:45.128Z,-55
2017-10-23T18:25:13.268Z,-55
2017-10-23T18:27:41.372Z,-55
2017-10-23T18:30:10.196Z,-55
2017-10-23T18:32:38.290Z,-55
2017-10-23T18:35:06.673Z,-55
2017-10-23T18:37:34.759Z,-55
2017-10-23T18:40:03.045Z,-55
2017-10-23T18:42:31.145Z,-55
2017-10-23T18:45:00.431Z,-55
2017-10-23T18:47:28.531Z,-55
2017-10-23T18:49:56.643Z,-55
2017-10-23T18:52:24.733Z,-55
2017-10-23T18:54:52.823Z,-56
2017-10-23T18:57:22.403Z,-55
2017-10-23T18:59:50.524Z,-56
2017-10-23T19:02:18.633Z,-55
2017-10-23T19:04:46.738Z,-55
2017-10-23T19:07:16.400Z,-55
2017-10-23T19:09:44.851Z,-55
2017-10-23T19:12:13.707Z,-55
2017-10-23T19:14:42.023Z,-55
2017-10-23T19:17:10.851Z,-55
2017-10-23T19:19:38.987Z,-55
2017-10-23T19:22:07.828Z,-55
2017-10-23T19:24:35.929Z,-55
2017-10-23T19:27:04.383Z,-55
2017-10-23T19:29:32.759Z,-55
2017-10-23T19:32:00.899Z,-55
2017-10-23T19:34:29.010Z,-55
2017-10-23T19:36:57.106Z,-55
2017-10-23T19:39:25.223Z,-56
2017-10-23T19:41:53.397Z,-57
2017-10-23T19:44:21.543Z,-55
2017-10-23T19:46:50.427Z,-55
2017-10-23T19:49:19.274Z,-56
2017-10-23T19:51:47.791Z,-55
2017-10-23T19:54:15.930Z,-55
2017-10-23T19:56:44.027Z,-55
2017-10-23T19:59:13.615Z,-56
2017-10-23T20:01:41.738Z,-56
2017-10-23T20:04:10.571Z,-56
2017-10-23T20:06:38.719Z,-55
2017-10-23T20:09:06.823Z,-55
2017-10-23T20:11:35.371Z,-55
2017-10-23T20:14:03.488Z,-56
2017-10-23T20:16:31.591Z,-55
2017-10-23T20:19:00.427Z,-55
2017-10-23T20:21:28.523Z,-55
2017-10-23T20:23:56.643Z,-56
2017-10-23T20:26:25.504Z,-56
2017-10-23T20:28:53.634Z,-56
2017-10-23T20:31:21.735Z,-56
2017-10-23T20:33:49.849Z,-56
2017-10-23T20:36:18.703Z,-55
2017-10-23T20:38:46.811Z,-55
2017-10-23T20:41:15.647Z,-55
2017-10-23T20:43:43.802Z,-55
2017-10-23T20:46:11.907Z,-55
2017-10-23T20:48:40.075Z,-56
2017-10-23T20:51:08.479Z,-58
2017-10-23T20:53:36.616Z,-58
2017-10-23T20:56:04.783Z,-58
2017-10-23T20:58:32.912Z,-59
2017-10-23T21:01:01.922Z,-58
2017-10-23T21:03:30.055Z,-58
2017-10-23T21:05:58.324Z,-58
2017-10-23T21:08:26.431Z,-58
2017-10-23T21:10:55.274Z,-58
2017-10-23T21:13:23.635Z,-58
2017-10-23T21:15:52.544Z,-58
2017-10-23T21:18:20.629Z,-58
2017-10-23T21:20:48.722Z,-58
2017-10-23T21:23:16.807Z,-58
2017-10-23T21:25:44.937Z,-58
2017-10-23T21:28:13.449Z,-58
2017-10-23T21:30:41.595Z,-58
2017-10-23T21:33:09.694Z,-59
2017-10-23T21:35:39.278Z,-58
2017-10-23T21:38:07.379Z,-60
2017-10-23T21:40:35.493Z,-59
2017-10-23T21:43:03.668Z,-59
2017-10-23T21:45:32.196Z,-59
2017-10-23T21:48:09.498Z,-59
2017-10-23T21:50:37.598Z,-59
2017-10-23T21:53:05.698Z,-59
2017-10-23T21:55:33.795Z,-59
2017-10-23T21:58:01.914Z,-59
2017-10-23T22:00:30.007Z,-59
2017-10-23T22:02:58.097Z,-58
2017-10-23T22:05:26.219Z,-59
2017-10-23T22:07:55.026Z,-59
2017-10-23T22:10:23.539Z,-58
2017-10-23T22:12:51.646Z,-59
2017-10-23T22:15:19.764Z,-59
2017-10-23T22:17:47.875Z,-58
2017-10-23T22:20:16.009Z,-58
2017-10-23T22:22:44.270Z,-58
2017-10-23T22:25:12.368Z,-59
2017-10-23T22:27:40.492Z,-59
2017-10-23T22:30:08.942Z,-59
2017-10-23T22:32:37.043Z,-59
2017-10-23T22:35:05.727Z,-58
2017-10-23T22:37:33.816Z,-58
2017-10-23T22:40:02.667Z,-59
2017-10-23T22:42:30.794Z,-58
2017-10-23T22:44:58.919Z,-59
2017-10-23T22:47:27.027Z,-58
2017-10-23T22:49:55.601Z,-58
2017-10-23T22:52:24.440Z,-57
2017-10-23T22:54:53.694Z,-57
2017-10-23T22:57:21.819Z,-58
2017-10-23T22:59:49.952Z,-58
2017-10-23T23:02:18.949Z,-58
2017-10-23T23:04:47.101Z,-58
2017-10-23T23:07:16.250Z,-58
2017-10-23T23:09:44.473Z,-58
2017-10-23T23:12:13.009Z,-58
2017-10-23T23:14:41.143Z,-59
2017-10-23T23:17:09.231Z,-58
2017-10-23T23:19:37.759Z,-58
2017-10-23T23:22:05.904Z,-58
2017-10-23T23:24:34.095Z,-59
2017-10-23T23:27:02.230Z,-59
2017-10-23T23:29:30.331Z,-59
2017-10-23T23:31:58.435Z,-59
2017-10-23T23:34:26.547Z,-58
2017-10-23T23:36:54.665Z,-59
2017-10-23T23:39:23.271Z,-58
2017-10-23T23:41:51.832Z,-58
2017-10-23T23:44:19.907Z,-58
2017-10-23T23:46:47.996Z,-58
2017-10-23T23:49:16.087Z,-59
2017-10-23T23:51:44.899Z,-59
2017-10-23T23:54:13.255Z,-59
2017-10-23T23:56:42.144Z,-59
2017-10-23T23:59:10.974Z,-58
